Hallsville, Ohio
Current Conditions -  °F | °C
As of 9:15 AM on Wednesday 28 Jan 2015 (Local Time) from KRZT Reporting Station
Clear Clear  
Wind Chill: 12°   Ceiling: Unl
Heat Index: 12°   Visibility: 7mi
Dew Point: 10°   Wind: 0mph
Humidity: 92%   Direction: NA
Pressure: 30.39"   Gusts: NA
Location:  39.44°N, 82.83°W
Report Text: KRZT 281415Z AUTO 00000KT 7SM CLR M11/M12 A3039 RMK AO2
Loading
Personal Weather Stations






























Interactive Weather Map New forecast layout! Learn more

10-Day Weather Forecast

Advertisements
Track Severe Weather on mobile